sensor_id;sensor_type;location;lat;lon;timestamp;P1;durP1;ratioP1;P2;durP2;ratioP2
16957;SDS011;8595;52.542;11.974;2022-11-20T00:00:37;20.83;;;13.97;;
16957;SDS011;8595;52.542;11.974;2022-11-20T00:03:05;21.13;;;14.60;;
16957;SDS011;8595;52.542;11.974;2022-11-20T00:05:32;24.67;;;15.70;;
16957;SDS011;8595;52.542;11.974;2022-11-20T00:07:59;20.43;;;14.87;;
16957;SDS011;8595;52.542;11.974;2022-11-20T00:10:26;19.87;;;15.03;;
16957;SDS011;8595;52.542;11.974;2022-11-20T00:12:53;20.10;;;14.30;;
16957;SDS011;8595;52.542;11.974;2022-11-20T00:15:19;19.67;;;14.87;;
16957;SDS011;8595;52.542;11.974;2022-11-20T00:17:46;23.07;;;14.97;;
16957;SDS011;8595;52.542;11.974;2022-11-20T00:20:15;24.10;;;15.23;;
16957;SDS011;8595;52.542;11.974;2022-11-20T00:22:41;23.60;;;15.37;;
16957;SDS011;8595;52.542;11.974;2022-11-20T00:25:08;22.33;;;15.10;;
16957;SDS011;8595;52.542;11.974;2022-11-20T00:27:35;24.23;;;16.47;;
16957;SDS011;8595;52.542;11.974;2022-11-20T00:30:02;20.63;;;14.63;;
16957;SDS011;8595;52.542;11.974;2022-11-20T00:32:29;23.20;;;16.10;;
16957;SDS011;8595;52.542;11.974;2022-11-20T00:34:56;21.23;;;14.07;;
16957;SDS011;8595;52.542;11.974;2022-11-20T00:37:24;21.07;;;14.77;;
16957;SDS011;8595;52.542;11.974;2022-11-20T00:39:51;22.17;;;14.77;;
16957;SDS011;8595;52.542;11.974;2022-11-20T00:42:18;21.37;;;13.63;;
16957;SDS011;8595;52.542;11.974;2022-11-20T00:44:44;21.80;;;14.50;;
16957;SDS011;8595;52.542;11.974;2022-11-20T00:47:11;21.90;;;15.40;;
16957;SDS011;8595;52.542;11.974;2022-11-20T00:49:38;23.33;;;15.17;;
16957;SDS011;8595;52.542;11.974;2022-11-20T00:52:05;19.07;;;13.27;;
16957;SDS011;8595;52.542;11.974;2022-11-20T00:54:33;22.50;;;16.50;;
16957;SDS011;8595;52.542;11.974;2022-11-20T00:57:00;20.17;;;13.27;;
16957;SDS011;8595;52.542;11.974;2022-11-20T00:59:26;25.17;;;15.67;;
16957;SDS011;8595;52.542;11.974;2022-11-20T01:01:53;22.87;;;15.13;;
16957;SDS011;8595;52.542;11.974;2022-11-20T01:04:20;22.77;;;13.93;;
16957;SDS011;8595;52.542;11.974;2022-11-20T01:06:47;21.13;;;14.10;;
16957;SDS011;8595;52.542;11.974;2022-11-20T01:09:13;21.40;;;14.90;;
16957;SDS011;8595;52.542;11.974;2022-11-20T01:11:43;20.47;;;15.47;;
16957;SDS011;8595;52.542;11.974;2022-11-20T01:14:11;25.47;;;15.23;;
16957;SDS011;8595;52.542;11.974;2022-11-20T01:16:40;20.23;;;14.70;;
16957;SDS011;8595;52.542;11.974;2022-11-20T01:19:10;22.93;;;14.57;;
16957;SDS011;8595;52.542;11.974;2022-11-20T01:21:39;23.27;;;15.23;;
16957;SDS011;8595;52.542;11.974;2022-11-20T01:24:08;22.47;;;15.80;;
16957;SDS011;8595;52.542;11.974;2022-11-20T01:26:38;21.90;;;14.47;;
16957;SDS011;8595;52.542;11.974;2022-11-20T01:29:09;23.20;;;15.47;;
16957;SDS011;8595;52.542;11.974;2022-11-20T01:31:39;26.80;;;17.30;;
16957;SDS011;8595;52.542;11.974;2022-11-20T01:34:06;25.90;;;17.00;;
16957;SDS011;8595;52.542;11.974;2022-11-20T01:36:36;25.70;;;17.50;;
16957;SDS011;8595;52.542;11.974;2022-11-20T01:39:04;23.60;;;14.23;;
16957;SDS011;8595;52.542;11.974;2022-11-20T01:41:33;24.87;;;15.80;;
16957;SDS011;8595;52.542;11.974;2022-11-20T01:44:19;21.30;;;15.13;;
16957;SDS011;8595;52.542;11.974;2022-11-20T01:46:51;24.77;;;15.17;;
16957;SDS011;8595;52.542;11.974;2022-11-20T01:49:23;24.23;;;16.97;;
16957;SDS011;8595;52.542;11.974;2022-11-20T01:51:53;23.50;;;15.97;;
16957;SDS011;8595;52.542;11.974;2022-11-20T01:54:27;24.37;;;15.60;;
16957;SDS011;8595;52.542;11.974;2022-11-20T01:57:01;25.13;;;17.10;;
16957;SDS011;8595;52.542;11.974;2022-11-20T01:59:34;25.60;;;16.73;;
16957;SDS011;8595;52.542;11.974;2022-11-20T02:02:05;24.10;;;18.10;;
16957;SDS011;8595;52.542;11.974;2022-11-20T02:04:32;24.67;;;17.23;;
16957;SDS011;8595;52.542;11.974;2022-11-20T02:06:59;23.37;;;16.10;;
16957;SDS011;8595;52.542;11.974;2022-11-20T02:09:28;21.03;;;15.10;;
16957;SDS011;8595;52.542;11.974;2022-11-20T02:11:54;26.37;;;17.67;;
16957;SDS011;8595;52.542;11.974;2022-11-20T02:14:22;22.87;;;16.27;;
16957;SDS011;8595;52.542;11.974;2022-11-20T02:16:50;26.17;;;17.37;;
16957;SDS011;8595;52.542;11.974;2022-11-20T02:19:22;26.90;;;17.77;;
16957;SDS011;8595;52.542;11.974;2022-11-20T02:21:53;22.07;;;16.10;;
16957;SDS011;8595;52.542;11.974;2022-11-20T02:24:28;21.13;;;15.60;;
16957;SDS011;8595;52.542;11.974;2022-11-20T02:26:56;21.37;;;14.93;;
16957;SDS011;8595;52.542;11.974;2022-11-20T02:29:26;27.30;;;16.93;;
16957;SDS011;8595;52.542;11.974;2022-11-20T02:31:57;23.47;;;16.23;;
16957;SDS011;8595;52.542;11.974;2022-11-20T02:34:26;23.47;;;16.50;;
16957;SDS011;8595;52.542;11.974;2022-11-20T02:36:53;25.77;;;15.73;;
16957;SDS011;8595;52.542;11.974;2022-11-20T02:39:21;27.43;;;17.93;;
16957;SDS011;8595;52.542;11.974;2022-11-20T02:41:52;25.70;;;17.83;;
16957;SDS011;8595;52.542;11.974;2022-11-20T02:44:21;30.03;;;18.67;;
16957;SDS011;8595;52.542;11.974;2022-11-20T02:46:48;26.47;;;18.20;;
16957;SDS011;8595;52.542;11.974;2022-11-20T02:49:15;25.47;;;15.57;;
16957;SDS011;8595;52.542;11.974;2022-11-20T02:51:42;25.23;;;16.73;;
16957;SDS011;8595;52.542;11.974;2022-11-20T02:54:09;28.53;;;19.00;;
16957;SDS011;8595;52.542;11.974;2022-11-20T02:56:37;27.20;;;16.47;;
16957;SDS011;8595;52.542;11.974;2022-11-20T02:59:05;28.40;;;17.47;;
16957;SDS011;8595;52.542;11.974;2022-11-20T03:01:32;25.30;;;17.73;;
16957;SDS011;8595;52.542;11.974;2022-11-20T03:03:59;26.03;;;18.00;;
16957;SDS011;8595;52.542;11.974;2022-11-20T03:06:25;29.53;;;19.63;;
16957;SDS011;8595;52.542;11.974;2022-11-20T03:08:52;27.10;;;18.17;;
16957;SDS011;8595;52.542;11.974;2022-11-20T03:11:19;25.13;;;16.20;;
16957;SDS011;8595;52.542;11.974;2022-11-20T03:13:46;26.53;;;17.47;;
16957;SDS011;8595;52.542;11.974;2022-11-20T03:16:15;25.93;;;18.07;;
16957;SDS011;8595;52.542;11.974;2022-11-20T03:18:43;25.97;;;18.17;;
16957;SDS011;8595;52.542;11.974;2022-11-20T03:21:11;23.90;;;14.97;;
16957;SDS011;8595;52.542;11.974;2022-11-20T03:23:38;27.13;;;16.97;;
16957;SDS011;8595;52.542;11.974;2022-11-20T03:26:10;26.87;;;17.63;;
16957;SDS011;8595;52.542;11.974;2022-11-20T03:28:38;30.73;;;18.30;;
16957;SDS011;8595;52.542;11.974;2022-11-20T03:31:07;28.57;;;17.93;;
16957;SDS011;8595;52.542;11.974;2022-11-20T03:33:36;28.67;;;16.23;;
16957;SDS011;8595;52.542;11.974;2022-11-20T03:36:04;26.80;;;16.73;;
16957;SDS011;8595;52.542;11.974;2022-11-20T03:38:33;26.07;;;16.90;;
16957;SDS011;8595;52.542;11.974;2022-11-20T03:41:00;27.20;;;17.40;;
16957;SDS011;8595;52.542;11.974;2022-11-20T03:43:28;26.40;;;17.97;;
16957;SDS011;8595;52.542;11.974;2022-11-20T03:45:55;22.63;;;15.60;;
16957;SDS011;8595;52.542;11.974;2022-11-20T03:48:22;27.17;;;16.90;;
16957;SDS011;8595;52.542;11.974;2022-11-20T03:50:50;25.97;;;16.97;;
16957;SDS011;8595;52.542;11.974;2022-11-20T03:53:17;24.70;;;17.50;;
16957;SDS011;8595;52.542;11.974;2022-11-20T03:55:44;25.80;;;17.13;;
16957;SDS011;8595;52.542;11.974;2022-11-20T03:58:16;25.23;;;18.70;;
16957;SDS011;8595;52.542;11.974;2022-11-20T04:00:43;26.37;;;16.47;;
16957;SDS011;8595;52.542;11.974;2022-11-20T04:03:09;32.70;;;18.63;;
16957;SDS011;8595;52.542;11.974;2022-11-20T04:05:36;30.37;;;18.67;;
16957;SDS011;8595;52.542;11.974;2022-11-20T04:08:05;26.90;;;15.77;;
16957;SDS011;8595;52.542;11.974;2022-11-20T04:10:31;28.43;;;17.60;;
16957;SDS011;8595;52.542;11.974;2022-11-20T04:12:58;24.37;;;16.70;;
16957;SDS011;8595;52.542;11.974;2022-11-20T04:15:25;26.77;;;18.77;;
16957;SDS011;8595;52.542;11.974;2022-11-20T04:17:51;32.30;;;18.33;;
16957;SDS011;8595;52.542;11.974;2022-11-20T04:20:20;25.83;;;17.33;;
16957;SDS011;8595;52.542;11.974;2022-11-20T04:22:47;25.97;;;17.63;;
16957;SDS011;8595;52.542;11.974;2022-11-20T04:25:15;24.43;;;16.53;;
16957;SDS011;8595;52.542;11.974;2022-11-20T04:27:41;34.33;;;18.03;;
16957;SDS011;8595;52.542;11.974;2022-11-20T04:30:08;22.80;;;15.27;;
16957;SDS011;8595;52.542;11.974;2022-11-20T04:32:36;23.00;;;15.87;;
16957;SDS011;8595;52.542;11.974;2022-11-20T04:35:03;20.83;;;14.07;;
16957;SDS011;8595;52.542;11.974;2022-11-20T04:37:30;25.57;;;15.50;;
16957;SDS011;8595;52.542;11.974;2022-11-20T04:39:57;24.80;;;15.43;;
16957;SDS011;8595;52.542;11.974;2022-11-20T04:42:25;20.97;;;15.67;;
16957;SDS011;8595;52.542;11.974;2022-11-20T04:44:55;26.77;;;16.93;;
16957;SDS011;8595;52.542;11.974;2022-11-20T04:47:22;29.53;;;16.70;;
16957;SDS011;8595;52.542;11.974;2022-11-20T04:49:49;24.27;;;16.17;;
16957;SDS011;8595;52.542;11.974;2022-11-20T04:52:16;23.77;;;16.97;;
16957;SDS011;8595;52.542;11.974;2022-11-20T04:54:42;24.27;;;15.13;;
16957;SDS011;8595;52.542;11.974;2022-11-20T04:57:09;24.57;;;16.03;;
16957;SDS011;8595;52.542;11.974;2022-11-20T04:59:37;24.37;;;15.27;;
16957;SDS011;8595;52.542;11.974;2022-11-20T05:02:04;29.27;;;17.73;;
16957;SDS011;8595;52.542;11.974;2022-11-20T05:04:31;24.70;;;16.03;;
16957;SDS011;8595;52.542;11.974;2022-11-20T05:06:57;27.57;;;17.67;;
16957;SDS011;8595;52.542;11.974;2022-11-20T05:09:24;28.63;;;16.87;;
16957;SDS011;8595;52.542;11.974;2022-11-20T05:11:51;35.40;;;18.53;;
16957;SDS011;8595;52.542;11.974;2022-11-20T05:14:17;25.30;;;17.37;;
16957;SDS011;8595;52.542;11.974;2022-11-20T05:16:46;25.57;;;16.13;;
16957;SDS011;8595;52.542;11.974;2022-11-20T05:19:12;28.27;;;18.13;;
16957;SDS011;8595;52.542;11.974;2022-11-20T05:21:39;35.73;;;22.67;;
16957;SDS011;8595;52.542;11.974;2022-11-20T05:24:06;25.93;;;17.27;;
16957;SDS011;8595;52.542;11.974;2022-11-20T05:26:33;27.13;;;16.70;;
16957;SDS011;8595;52.542;11.974;2022-11-20T05:28:59;29.83;;;19.50;;
16957;SDS011;8595;52.542;11.974;2022-11-20T05:31:26;28.13;;;18.07;;
16957;SDS011;8595;52.542;11.974;2022-11-20T05:33:54;28.03;;;17.40;;
16957;SDS011;8595;52.542;11.974;2022-11-20T05:36:22;23.93;;;16.37;;
16957;SDS011;8595;52.542;11.974;2022-11-20T05:38:49;30.07;;;17.67;;
16957;SDS011;8595;52.542;11.974;2022-11-20T05:41:16;30.87;;;20.67;;
16957;SDS011;8595;52.542;11.974;2022-11-20T05:43:44;37.80;;;23.23;;
16957;SDS011;8595;52.542;11.974;2022-11-20T05:46:12;29.83;;;20.23;;
16957;SDS011;8595;52.542;11.974;2022-11-20T05:48:41;29.33;;;18.23;;
16957;SDS011;8595;52.542;11.974;2022-11-20T05:51:10;29.23;;;17.80;;
16957;SDS011;8595;52.542;11.974;2022-11-20T05:53:38;30.73;;;21.00;;
16957;SDS011;8595;52.542;11.974;2022-11-20T05:56:05;31.37;;;19.73;;
16957;SDS011;8595;52.542;11.974;2022-11-20T05:58:34;28.80;;;19.03;;
16957;SDS011;8595;52.542;11.974;2022-11-20T06:01:03;29.67;;;17.93;;
16957;SDS011;8595;52.542;11.974;2022-11-20T06:03:31;36.83;;;19.30;;
16957;SDS011;8595;52.542;11.974;2022-11-20T06:05:58;31.27;;;19.37;;
16957;SDS011;8595;52.542;11.974;2022-11-20T06:08:26;31.43;;;19.10;;
16957;SDS011;8595;52.542;11.974;2022-11-20T06:10:53;30.10;;;19.00;;
16957;SDS011;8595;52.542;11.974;2022-11-20T06:13:20;33.03;;;22.03;;
16957;SDS011;8595;52.542;11.974;2022-11-20T06:15:48;29.93;;;17.37;;
16957;SDS011;8595;52.542;11.974;2022-11-20T06:18:15;30.03;;;18.07;;
16957;SDS011;8595;52.542;11.974;2022-11-20T06:20:41;30.07;;;20.13;;
16957;SDS011;8595;52.542;11.974;2022-11-20T06:23:08;31.40;;;20.47;;
16957;SDS011;8595;52.542;11.974;2022-11-20T06:25:38;31.87;;;18.93;;
16957;SDS011;8595;52.542;11.974;2022-11-20T06:28:05;32.23;;;19.77;;
16957;SDS011;8595;52.542;11.974;2022-11-20T06:30:32;32.97;;;20.17;;
16957;SDS011;8595;52.542;11.974;2022-11-20T06:32:59;30.13;;;20.30;;
16957;SDS011;8595;52.542;11.974;2022-11-20T06:35:25;29.67;;;19.57;;
16957;SDS011;8595;52.542;11.974;2022-11-20T06:37:52;31.07;;;18.67;;
16957;SDS011;8595;52.542;11.974;2022-11-20T06:40:19;33.00;;;18.60;;
16957;SDS011;8595;52.542;11.974;2022-11-20T06:42:47;31.23;;;19.00;;
16957;SDS011;8595;52.542;11.974;2022-11-20T06:45:14;31.43;;;18.60;;
16957;SDS011;8595;52.542;11.974;2022-11-20T06:47:41;30.83;;;17.40;;
16957;SDS011;8595;52.542;11.974;2022-11-20T06:50:08;31.13;;;18.33;;
16957;SDS011;8595;52.542;11.974;2022-11-20T06:52:35;31.03;;;20.10;;
16957;SDS011;8595;52.542;11.974;2022-11-20T06:55:02;30.83;;;18.33;;
16957;SDS011;8595;52.542;11.974;2022-11-20T06:57:29;31.70;;;20.53;;
16957;SDS011;8595;52.542;11.974;2022-11-20T06:59:57;27.07;;;17.10;;
16957;SDS011;8595;52.542;11.974;2022-11-20T07:02:24;26.63;;;17.63;;
16957;SDS011;8595;52.542;11.974;2022-11-20T07:04:51;34.70;;;19.43;;
16957;SDS011;8595;52.542;11.974;2022-11-20T07:07:17;33.80;;;22.53;;
16957;SDS011;8595;52.542;11.974;2022-11-20T07:09:44;29.63;;;19.97;;
16957;SDS011;8595;52.542;11.974;2022-11-20T07:12:11;31.83;;;18.63;;
16957;SDS011;8595;52.542;11.974;2022-11-20T07:14:38;30.93;;;18.87;;
16957;SDS011;8595;52.542;11.974;2022-11-20T07:17:06;28.77;;;18.67;;
16957;SDS011;8595;52.542;11.974;2022-11-20T07:19:33;28.73;;;18.20;;
16957;SDS011;8595;52.542;11.974;2022-11-20T07:21:59;28.87;;;18.70;;
16957;SDS011;8595;52.542;11.974;2022-11-20T07:24:26;25.00;;;16.87;;
16957;SDS011;8595;52.542;11.974;2022-11-20T07:26:53;28.00;;;18.20;;
16957;SDS011;8595;52.542;11.974;2022-11-20T07:29:20;33.57;;;20.53;;
16957;SDS011;8595;52.542;11.974;2022-11-20T07:31:46;30.93;;;19.13;;
16957;SDS011;8595;52.542;11.974;2022-11-20T07:34:14;29.03;;;17.87;;
16957;SDS011;8595;52.542;11.974;2022-11-20T07:36:41;33.97;;;19.10;;
16957;SDS011;8595;52.542;11.974;2022-11-20T07:39:08;30.40;;;18.40;;
16957;SDS011;8595;52.542;11.974;2022-11-20T07:41:35;30.60;;;18.73;;
16957;SDS011;8595;52.542;11.974;2022-11-20T07:44:02;30.07;;;19.50;;
16957;SDS011;8595;52.542;11.974;2022-11-20T07:46:29;32.37;;;19.80;;
16957;SDS011;8595;52.542;11.974;2022-11-20T07:48:56;30.90;;;19.43;;
16957;SDS011;8595;52.542;11.974;2022-11-20T07:51:24;34.43;;;20.07;;
16957;SDS011;8595;52.542;11.974;2022-11-20T07:53:52;35.17;;;20.00;;
16957;SDS011;8595;52.542;11.974;2022-11-20T07:56:19;31.67;;;21.13;;
16957;SDS011;8595;52.542;11.974;2022-11-20T07:58:46;32.00;;;21.07;;
16957;SDS011;8595;52.542;11.974;2022-11-20T08:01:13;35.30;;;21.40;;
16957;SDS011;8595;52.542;11.974;2022-11-20T08:03:39;28.07;;;17.60;;
16957;SDS011;8595;52.542;11.974;2022-11-20T08:06:07;28.87;;;19.03;;
16957;SDS011;8595;52.542;11.974;2022-11-20T08:08:35;30.87;;;19.07;;
16957;SDS011;8595;52.542;11.974;2022-11-20T08:11:04;35.87;;;20.17;;
16957;SDS011;8595;52.542;11.974;2022-11-20T08:13:49;41.27;;;25.77;;
16957;SDS011;8595;52.542;11.974;2022-11-20T08:16:48;34.60;;;22.73;;
16957;SDS011;8595;52.542;11.974;2022-11-20T08:19:16;32.83;;;20.07;;
16957;SDS011;8595;52.542;11.974;2022-11-20T08:21:43;34.97;;;20.80;;
16957;SDS011;8595;52.542;11.974;2022-11-20T08:24:12;32.30;;;21.93;;
16957;SDS011;8595;52.542;11.974;2022-11-20T08:26:39;37.33;;;23.77;;
16957;SDS011;8595;52.542;11.974;2022-11-20T08:29:06;40.17;;;23.77;;
16957;SDS011;8595;52.542;11.974;2022-11-20T08:31:33;38.67;;;23.80;;
16957;SDS011;8595;52.542;11.974;2022-11-20T08:34:00;35.97;;;19.73;;
16957;SDS011;8595;52.542;11.974;2022-11-20T08:36:27;43.30;;;26.07;;
16957;SDS011;8595;52.542;11.974;2022-11-20T08:38:54;41.10;;;24.50;;
16957;SDS011;8595;52.542;11.974;2022-11-20T08:41:23;29.53;;;19.07;;
16957;SDS011;8595;52.542;11.974;2022-11-20T08:43:51;27.67;;;17.60;;
16957;SDS011;8595;52.542;11.974;2022-11-20T08:46:19;28.23;;;17.57;;
16957;SDS011;8595;52.542;11.974;2022-11-20T08:48:46;26.77;;;17.00;;
16957;SDS011;8595;52.542;11.974;2022-11-20T08:51:13;29.47;;;18.97;;
16957;SDS011;8595;52.542;11.974;2022-11-20T08:53:41;27.63;;;17.23;;
16957;SDS011;8595;52.542;11.974;2022-11-20T08:56:08;31.60;;;19.47;;
16957;SDS011;8595;52.542;11.974;2022-11-20T08:58:37;39.77;;;24.73;;
16957;SDS011;8595;52.542;11.974;2022-11-20T09:01:04;46.67;;;23.83;;
16957;SDS011;8595;52.542;11.974;2022-11-20T09:03:31;35.90;;;20.67;;
16957;SDS011;8595;52.542;11.974;2022-11-20T09:05:58;39.03;;;25.80;;
16957;SDS011;8595;52.542;11.974;2022-11-20T09:08:26;31.73;;;19.57;;
16957;SDS011;8595;52.542;11.974;2022-11-20T09:10:54;29.50;;;17.17;;
16957;SDS011;8595;52.542;11.974;2022-11-20T09:13:22;26.57;;;16.70;;
16957;SDS011;8595;52.542;11.974;2022-11-20T09:15:53;28.67;;;19.57;;
16957;SDS011;8595;52.542;11.974;2022-11-20T09:18:21;28.23;;;19.13;;
16957;SDS011;8595;52.542;11.974;2022-11-20T09:20:48;27.10;;;17.87;;
16957;SDS011;8595;52.542;11.974;2022-11-20T09:23:15;29.50;;;18.50;;
16957;SDS011;8595;52.542;11.974;2022-11-20T09:25:42;27.00;;;16.70;;
16957;SDS011;8595;52.542;11.974;2022-11-20T09:28:10;25.13;;;15.40;;
16957;SDS011;8595;52.542;11.974;2022-11-20T09:30:41;26.40;;;17.07;;
16957;SDS011;8595;52.542;11.974;2022-11-20T09:33:09;28.53;;;17.83;;
16957;SDS011;8595;52.542;11.974;2022-11-20T09:35:36;27.57;;;18.57;;
16957;SDS011;8595;52.542;11.974;2022-11-20T09:38:06;25.43;;;16.40;;
16957;SDS011;8595;52.542;11.974;2022-11-20T09:40:36;26.77;;;16.70;;
16957;SDS011;8595;52.542;11.974;2022-11-20T09:43:07;27.03;;;18.03;;
16957;SDS011;8595;52.542;11.974;2022-11-20T09:45:44;27.17;;;18.37;;
16957;SDS011;8595;52.542;11.974;2022-11-20T09:48:45;25.23;;;17.07;;
16957;SDS011;8595;52.542;11.974;2022-11-20T09:51:25;29.87;;;17.50;;
16957;SDS011;8595;52.542;11.974;2022-11-20T09:54:03;26.23;;;16.07;;
16957;SDS011;8595;52.542;11.974;2022-11-20T09:56:40;25.17;;;14.73;;
16957;SDS011;8595;52.542;11.974;2022-11-20T09:59:13;27.80;;;18.20;;
16957;SDS011;8595;52.542;11.974;2022-11-20T10:01:48;28.07;;;17.57;;
16957;SDS011;8595;52.542;11.974;2022-11-20T10:04:16;28.97;;;17.83;;
16957;SDS011;8595;52.542;11.974;2022-11-20T10:06:47;24.67;;;16.80;;
16957;SDS011;8595;52.542;11.974;2022-11-20T10:09:20;23.67;;;15.77;;
16957;SDS011;8595;52.542;11.974;2022-11-20T10:11:54;26.73;;;17.73;;
16957;SDS011;8595;52.542;11.974;2022-11-20T10:14:33;30.07;;;17.70;;
16957;SDS011;8595;52.542;11.974;2022-11-20T10:17:11;24.03;;;17.40;;
16957;SDS011;8595;52.542;11.974;2022-11-20T10:19:51;29.00;;;17.80;;
16957;SDS011;8595;52.542;11.974;2022-11-20T10:22:31;25.27;;;16.97;;
16957;SDS011;8595;52.542;11.974;2022-11-20T10:25:13;26.67;;;17.00;;
16957;SDS011;8595;52.542;11.974;2022-11-20T10:27:55;31.73;;;18.03;;
16957;SDS011;8595;52.542;11.974;2022-11-20T10:30:41;27.13;;;17.47;;
16957;SDS011;8595;52.542;11.974;2022-11-20T10:33:13;26.10;;;17.03;;
16957;SDS011;8595;52.542;11.974;2022-11-20T10:35:44;30.73;;;19.13;;
16957;SDS011;8595;52.542;11.974;2022-11-20T10:38:16;29.57;;;16.80;;
16957;SDS011;8595;52.542;11.974;2022-11-20T10:40:48;27.57;;;17.33;;
16957;SDS011;8595;52.542;11.974;2022-11-20T10:43:18;26.67;;;18.23;;
16957;SDS011;8595;52.542;11.974;2022-11-20T10:45:51;26.83;;;17.20;;
16957;SDS011;8595;52.542;11.974;2022-11-20T10:48:25;31.87;;;19.80;;
16957;SDS011;8595;52.542;11.974;2022-11-20T10:50:57;30.47;;;17.33;;
16957;SDS011;8595;52.542;11.974;2022-11-20T10:56:26;23.80;;;15.80;;
16957;SDS011;8595;52.542;11.974;2022-11-20T10:59:02;24.27;;;15.60;;
16957;SDS011;8595;52.542;11.974;2022-11-20T11:01:39;26.10;;;17.67;;
16957;SDS011;8595;52.542;11.974;2022-11-20T11:04:13;23.80;;;14.20;;
16957;SDS011;8595;52.542;11.974;2022-11-20T11:06:51;25.80;;;17.37;;
16957;SDS011;8595;52.542;11.974;2022-11-20T11:09:24;23.23;;;15.13;;
16957;SDS011;8595;52.542;11.974;2022-11-20T11:11:58;26.43;;;18.17;;
16957;SDS011;8595;52.542;11.974;2022-11-20T11:14:25;22.10;;;15.20;;
16957;SDS011;8595;52.542;11.974;2022-11-20T11:16:53;23.57;;;15.87;;
16957;SDS011;8595;52.542;11.974;2022-11-20T11:19:21;24.17;;;16.00;;
16957;SDS011;8595;52.542;11.974;2022-11-20T11:21:49;22.63;;;15.57;;
16957;SDS011;8595;52.542;11.974;2022-11-20T11:24:20;25.50;;;15.60;;
16957;SDS011;8595;52.542;11.974;2022-11-20T11:26:52;37.10;;;22.57;;
16957;SDS011;8595;52.542;11.974;2022-11-20T11:29:22;25.87;;;15.23;;
16957;SDS011;8595;52.542;11.974;2022-11-20T11:32:02;20.43;;;13.83;;
16957;SDS011;8595;52.542;11.974;2022-11-20T11:34:30;20.77;;;14.50;;
16957;SDS011;8595;52.542;11.974;2022-11-20T11:36:59;20.77;;;13.83;;
16957;SDS011;8595;52.542;11.974;2022-11-20T11:39:28;21.00;;;14.57;;
16957;SDS011;8595;52.542;11.974;2022-11-20T11:41:56;21.60;;;14.67;;
16957;SDS011;8595;52.542;11.974;2022-11-20T11:44:24;21.80;;;14.70;;
16957;SDS011;8595;52.542;11.974;2022-11-20T11:47:17;17.63;;;13.70;;
16957;SDS011;8595;52.542;11.974;2022-11-20T11:49:48;22.00;;;13.20;;
16957;SDS011;8595;52.542;11.974;2022-11-20T11:52:16;21.23;;;13.20;;
16957;SDS011;8595;52.542;11.974;2022-11-20T11:54:47;19.63;;;13.67;;
16957;SDS011;8595;52.542;11.974;2022-11-20T11:57:22;21.00;;;13.07;;
16957;SDS011;8595;52.542;11.974;2022-11-20T11:59:57;17.63;;;11.57;;
16957;SDS011;8595;52.542;11.974;2022-11-20T12:02:29;16.00;;;11.00;;
16957;SDS011;8595;52.542;11.974;2022-11-20T12:05:03;21.83;;;12.10;;
16957;SDS011;8595;52.542;11.974;2022-11-20T12:07:41;18.13;;;11.83;;
16957;SDS011;8595;52.542;11.974;2022-11-20T12:10:13;17.30;;;12.87;;
16957;SDS011;8595;52.542;11.974;2022-11-20T12:12:44;17.80;;;11.67;;
16957;SDS011;8595;52.542;11.974;2022-11-20T12:15:18;16.47;;;9.60;;
16957;SDS011;8595;52.542;11.974;2022-11-20T12:17:51;14.13;;;9.57;;
16957;SDS011;8595;52.542;11.974;2022-11-20T12:20:18;15.97;;;11.30;;
16957;SDS011;8595;52.542;11.974;2022-11-20T12:22:51;18.73;;;12.33;;
16957;SDS011;8595;52.542;11.974;2022-11-20T12:25:25;15.33;;;10.87;;
16957;SDS011;8595;52.542;11.974;2022-11-20T12:27:58;16.50;;;11.00;;
16957;SDS011;8595;52.542;11.974;2022-11-20T12:30:55;18.10;;;11.43;;
16957;SDS011;8595;52.542;11.974;2022-11-20T12:33:41;14.07;;;10.30;;
16957;SDS011;8595;52.542;11.974;2022-11-20T12:36:19;13.97;;;10.00;;
16957;SDS011;8595;52.542;11.974;2022-11-20T12:38:58;16.43;;;11.97;;
16957;SDS011;8595;52.542;11.974;2022-11-20T12:41:43;15.23;;;10.97;;
16957;SDS011;8595;52.542;11.974;2022-11-20T12:44:40;17.17;;;10.40;;
16957;SDS011;8595;52.542;11.974;2022-11-20T12:47:41;15.07;;;9.23;;
16957;SDS011;8595;52.542;11.974;2022-11-20T12:50:29;12.43;;;9.03;;
16957;SDS011;8595;52.542;11.974;2022-11-20T12:53:03;14.67;;;9.57;;
16957;SDS011;8595;52.542;11.974;2022-11-20T12:55:38;14.33;;;9.60;;
16957;SDS011;8595;52.542;11.974;2022-11-20T12:58:15;12.43;;;8.97;;
16957;SDS011;8595;52.542;11.974;2022-11-20T13:00:52;13.73;;;8.17;;
16957;SDS011;8595;52.542;11.974;2022-11-20T13:03:34;21.20;;;13.13;;
16957;SDS011;8595;52.542;11.974;2022-11-20T13:06:10;16.47;;;10.73;;
16957;SDS011;8595;52.542;11.974;2022-11-20T13:08:41;11.60;;;8.23;;
16957;SDS011;8595;52.542;11.974;2022-11-20T13:11:16;9.87;;;7.43;;
16957;SDS011;8595;52.542;11.974;2022-11-20T13:13:58;12.60;;;8.50;;
16957;SDS011;8595;52.542;11.974;2022-11-20T13:16:36;12.63;;;9.17;;
16957;SDS011;8595;52.542;11.974;2022-11-20T13:19:09;12.63;;;9.27;;
16957;SDS011;8595;52.542;11.974;2022-11-20T13:21:39;12.30;;;8.73;;
16957;SDS011;8595;52.542;11.974;2022-11-20T13:24:20;14.60;;;10.13;;
16957;SDS011;8595;52.542;11.974;2022-11-20T13:27:00;14.53;;;10.13;;
16957;SDS011;8595;52.542;11.974;2022-11-20T13:29:31;11.97;;;8.50;;
16957;SDS011;8595;52.542;11.974;2022-11-20T13:32:03;14.47;;;10.07;;
16957;SDS011;8595;52.542;11.974;2022-11-20T13:34:32;16.17;;;11.30;;
16957;SDS011;8595;52.542;11.974;2022-11-20T13:37:00;14.43;;;10.57;;
16957;SDS011;8595;52.542;11.974;2022-11-20T13:39:29;19.93;;;12.53;;
16957;SDS011;8595;52.542;11.974;2022-11-20T13:41:58;19.37;;;12.57;;
16957;SDS011;8595;52.542;11.974;2022-11-20T13:44:29;17.27;;;11.23;;
16957;SDS011;8595;52.542;11.974;2022-11-20T13:47:00;14.30;;;10.13;;
16957;SDS011;8595;52.542;11.974;2022-11-20T13:49:32;14.57;;;10.13;;
16957;SDS011;8595;52.542;11.974;2022-11-20T13:52:20;18.70;;;11.93;;
16957;SDS011;8595;52.542;11.974;2022-11-20T13:55:02;14.73;;;11.40;;
16957;SDS011;8595;52.542;11.974;2022-11-20T13:57:45;17.17;;;11.00;;
16957;SDS011;8595;52.542;11.974;2022-11-20T14:00:25;12.93;;;10.47;;
16957;SDS011;8595;52.542;11.974;2022-11-20T14:02:58;14.50;;;10.80;;
16957;SDS011;8595;52.542;11.974;2022-11-20T14:05:28;14.90;;;10.03;;
16957;SDS011;8595;52.542;11.974;2022-11-20T14:07:59;17.20;;;11.17;;
16957;SDS011;8595;52.542;11.974;2022-11-20T14:10:29;17.10;;;11.73;;
16957;SDS011;8595;52.542;11.974;2022-11-20T14:12:57;17.93;;;11.37;;
16957;SDS011;8595;52.542;11.974;2022-11-20T14:15:35;14.70;;;10.50;;
16957;SDS011;8595;52.542;11.974;2022-11-20T14:18:11;29.63;;;19.50;;
16957;SDS011;8595;52.542;11.974;2022-11-20T14:20:39;15.13;;;10.20;;
16957;SDS011;8595;52.542;11.974;2022-11-20T14:23:07;19.93;;;13.20;;
16957;SDS011;8595;52.542;11.974;2022-11-20T14:25:36;15.03;;;10.97;;
16957;SDS011;8595;52.542;11.974;2022-11-20T14:28:11;17.50;;;10.90;;
16957;SDS011;8595;52.542;11.974;2022-11-20T14:30:48;21.00;;;12.47;;
16957;SDS011;8595;52.542;11.974;2022-11-20T14:33:15;21.40;;;14.13;;
16957;SDS011;8595;52.542;11.974;2022-11-20T14:35:44;16.03;;;10.93;;
16957;SDS011;8595;52.542;11.974;2022-11-20T14:38:12;17.37;;;12.50;;
16957;SDS011;8595;52.542;11.974;2022-11-20T14:40:41;14.27;;;10.53;;